Time;durP1;ratioP1;P1;durP2;ratioP2;P2;SDS_P1;SDS_P2;PMS_P1;PMS_P2;Temp;Humidity;BMP_temperature;BMP_pressure;BME280_temperature;BME280_humidity;BME280_pressure;Samples;Min_cycle;Max_cycle;Signal;HPM_P1;HPM_P2
2023/03/23 00:02:00;;;;;;;0.25;0.25;;;17.70;74.10;;;;;;5064739;28;48051;-82
2023/03/23 00:04:30;;;;;;;0.20;0.20;;;17.70;74.10;;;;;;5064763;28;45177;-81
2023/03/23 00:06:56;;;;;;;0.98;0.30;;;17.70;74.20;;;;;;5064873;27;45335;-82
2023/03/23 00:09:24;;;;;;;0.68;0.30;;;17.70;74.20;;;;;;5064579;27;45418;-82
2023/03/23 00:11:56;;;;;;;0.22;0.22;;;17.70;74.30;;;;;;5064557;27;45475;-82
2023/03/23 00:14:24;;;;;;;0.85;0.30;;;17.70;74.30;;;;;;5064764;28;45147;-82
2023/03/23 00:16:51;;;;;;;0.40;0.40;;;17.70;74.20;;;;;;5064774;28;45159;-82
2023/03/23 00:19:20;;;;;;;0.52;0.40;;;17.70;74.20;;;;;;5064412;28;45514;-82
2023/03/23 00:21:47;;;;;;;0.40;0.30;;;17.70;74.30;;;;;;5064354;28;46602;-81
2023/03/23 00:24:16;;;;;;;0.22;0.20;;;17.70;74.20;;;;;;5064434;28;45137;-82
2023/03/23 00:26:45;;;;;;;0.52;0.20;;;17.70;74.20;;;;;;5064550;28;45184;-81
2023/03/23 00:29:16;;;;;;;0.20;0.20;;;17.70;74.30;;;;;;5064761;27;45094;-82
2023/03/23 00:31:46;;;;;;;0.20;0.17;;;17.70;74.30;;;;;;5064324;28;47340;-81
2023/03/23 00:34:18;;;;;;;0.30;0.30;;;17.70;74.20;;;;;;5064355;28;45131;-82
2023/03/23 00:36:46;;;;;;;0.20;0.10;;;17.70;74.20;;;;;;5064895;28;45202;-81
2023/03/23 00:39:15;;;;;;;0.82;0.30;;;17.70;74.20;;;;;;5064232;27;45223;-81
2023/03/23 00:41:42;;;;;;;0.40;0.20;;;17.70;74.00;;;;;;5064132;28;47246;-81
2023/03/23 00:44:09;;;;;;;0.47;0.25;;;17.70;74.10;;;;;;5063980;28;45708;-81
2023/03/23 00:46:44;;;;;;;0.22;0.20;;;17.70;74.00;;;;;;5064520;28;45339;-81
2023/03/23 00:49:12;;;;;;;0.40;0.40;;;17.70;74.00;;;;;;5069901;28;45723;-82
2023/03/23 00:51:38;;;;;;;0.52;0.30;;;17.70;73.90;;;;;;5066963;27;46540;-82
2023/03/23 00:54:05;;;;;;;0.25;0.25;;;17.70;73.90;;;;;;5064279;28;45148;-82
2023/03/23 00:56:32;;;;;;;0.32;0.30;;;17.70;73.90;;;;;;5064173;27;45054;-81
2023/03/23 00:58:59;;;;;;;0.40;0.30;;;17.80;74.00;;;;;;5064481;28;45595;-81
2023/03/23 01:01:26;;;;;;;0.73;0.30;;;17.70;74.00;;;;;;5063626;27;46419;-81
2023/03/23 01:04:00;;;;;;;0.40;0.20;;;17.70;74.10;;;;;;5063783;28;45385;-82
2023/03/23 01:06:30;;;;;;;0.22;0.20;;;17.70;74.00;;;;;;5064234;28;45207;-82
2023/03/23 01:08:58;;;;;;;0.25;0.25;;;17.70;73.70;;;;;;5064152;27;45150;-82
2023/03/23 01:11:25;;;;;;;0.20;0.20;;;17.70;73.30;;;;;;5063515;27;45329;-81
2023/03/23 01:13:52;;;;;;;0.20;0.20;;;17.70;73.00;;;;;;5063804;28;45338;-81
2023/03/23 01:16:19;;;;;;;0.30;0.30;;;17.70;73.20;;;;;;5063932;28;45137;-82
2023/03/23 01:18:46;;;;;;;0.30;0.30;;;17.70;72.90;;;;;;5063955;27;45368;-81
2023/03/23 01:21:16;;;;;;;0.20;0.20;;;17.70;72.70;;;;;;5063748;27;46686;-81
2023/03/23 01:23:43;;;;;;;0.45;0.30;;;17.60;72.80;;;;;;5064027;28;45313;-80
2023/03/23 01:26:12;;;;;;;0.98;0.30;;;17.70;73.10;;;;;;5063703;28;45089;-80
2023/03/23 01:28:39;;;;;;;0.30;0.30;;;17.70;73.30;;;;;;5063808;27;45142;-80
2023/03/23 01:31:08;;;;;;;0.30;0.30;;;17.80;73.40;;;;;;5063685;28;47567;-79
2023/03/23 01:33:36;;;;;;;2.72;0.50;;;17.70;73.40;;;;;;5063641;28;45108;-79
2023/03/23 01:36:05;;;;;;;0.60;0.50;;;17.70;73.50;;;;;;5062774;28;45246;-80
2023/03/23 01:38:34;;;;;;;0.30;0.30;;;17.80;73.60;;;;;;5063795;28;45360;-80
2023/03/23 01:41:01;;;;;;;0.40;0.30;;;17.80;73.60;;;;;;5068001;27;46265;-80
2023/03/23 01:43:28;;;;;;;0.28;0.10;;;17.80;73.70;;;;;;5066838;28;45213;-80
2023/03/23 01:45:55;;;;;;;0.20;0.20;;;17.80;73.80;;;;;;5063659;28;45151;-79
2023/03/23 01:48:25;;;;;;;0.68;0.30;;;17.80;73.70;;;;;;5063391;28;45189;-80
2023/03/23 01:50:57;;;;;;;0.22;0.22;;;17.80;73.70;;;;;;5063360;28;48518;-80
2023/03/23 01:53:28;;;;;;;0.50;0.50;;;17.80;73.80;;;;;;5063413;28;45586;-81
2023/03/23 01:55:58;;;;;;;0.75;0.40;;;17.70;74.80;;;;;;5063456;28;45366;-80
2023/03/23 01:58:27;;;;;;;1.02;0.20;;;17.80;74.00;;;;;;5063222;27;45463;-81
2023/03/23 02:00:56;;;;;;;1.10;0.30;;;17.80;74.10;;;;;;5062735;27;45480;-81
2023/03/23 02:03:24;;;;;;;0.50;0.40;;;17.80;74.20;;;;;;5063526;27;45181;-79
2023/03/23 02:05:51;;;;;;;0.30;0.30;;;17.80;74.20;;;;;;5063379;28;45110;-81
2023/03/23 02:08:19;;;;;;;0.35;0.30;;;17.80;74.30;;;;;;5063086;28;45372;-81
2023/03/23 02:10:46;;;;;;;0.40;0.30;;;17.80;74.30;;;;;;5063218;28;45441;-81
2023/03/23 02:13:15;;;;;;;0.30;0.30;;;17.80;74.40;;;;;;5063177;28;45366;-81
2023/03/23 02:15:50;;;;;;;0.25;0.25;;;17.80;74.50;;;;;;5063092;27;45115;-81
2023/03/23 02:18:32;;;;;;;0.32;0.30;;;17.70;74.40;;;;;;5062924;27;45181;-81
2023/03/23 02:21:40;;;;;;;1.15;0.40;;;17.80;74.50;;;;;;5062589;27;45205;-81
2023/03/23 02:24:41;;;;;;;0.63;0.45;;;17.80;74.50;;;;;;5062832;28;45200;-81
2023/03/23 02:27:12;;;;;;;0.30;0.30;;;17.70;74.40;;;;;;5046894;28;45288;-81
2023/03/23 02:30:20;;;;;;;0.28;0.20;;;17.80;74.50;;;;;;5063471;28;45307;-81
2023/03/23 02:33:08;;;;;;;2.50;0.93;;;17.80;74.40;;;;;;5065530;27;46203;-81
2023/03/23 02:35:38;;;;;;;0.20;0.20;;;17.80;74.40;;;;;;5063148;27;45115;-81
2023/03/23 02:38:10;;;;;;;0.35;0.28;;;17.80;74.40;;;;;;5062817;28;45389;-81
2023/03/23 02:40:42;;;;;;;0.30;0.30;;;17.80;74.30;;;;;;5060012;28;45120;-81
2023/03/23 02:43:12;;;;;;;0.20;0.20;;;17.80;74.30;;;;;;5062519;28;47341;-80
2023/03/23 02:45:39;;;;;;;1.20;0.30;;;17.80;74.30;;;;;;5062295;28;45298;-81
2023/03/23 02:48:09;;;;;;;0.17;0.17;;;17.80;74.30;;;;;;5064167;27;45206;-81
2023/03/23 02:50:38;;;;;;;0.60;0.38;;;17.80;74.20;;;;;;5065931;27;45061;-81
2023/03/23 02:53:08;;;;;;;0.13;0.13;;;17.80;74.30;;;;;;5065266;27;46667;-81
2023/03/23 02:55:40;;;;;;;1.75;0.20;;;17.80;74.30;;;;;;5065442;28;45399;-81
2023/03/23 02:58:07;;;;;;;2.08;0.28;;;17.80;74.40;;;;;;5066091;28;45239;-80
2023/03/23 03:00:34;;;;;;;0.30;0.20;;;17.80;74.40;;;;;;5065597;27;45192;-81
2023/03/23 03:03:02;;;;;;;0.47;0.20;;;17.80;74.50;;;;;;5065874;28;46971;-81
2023/03/23 03:05:40;;;;;;;0.30;0.25;;;18.40;74.90;;;;;;5065290;27;45206;-81
2023/03/23 03:08:17;;;;;;;0.25;0.20;;;17.80;74.50;;;;;;5065648;27;45209;-81
2023/03/23 03:10:50;;;;;;;0.20;0.20;;;17.80;74.50;;;;;;5065721;28;45471;-81
2023/03/23 03:13:27;;;;;;;0.17;0.17;;;17.80;74.50;;;;;;5065385;28;47014;-81
2023/03/23 03:16:00;;;;;;;0.40;0.20;;;17.80;74.50;;;;;;5065427;27;45166;-81
2023/03/23 03:18:31;;;;;;;0.30;0.10;;;17.70;75.40;;;;;;5065587;27;45384;-81
2023/03/23 03:21:03;;;;;;;0.22;0.20;;;17.80;74.60;;;;;;5065134;27;45133;-81
2023/03/23 03:23:32;;;;;;;0.30;0.20;;;17.80;74.40;;;;;;5065291;28;47312;-81
2023/03/23 03:26:00;;;;;;;0.55;0.17;;;18.40;75.00;;;;;;5075179;28;45185;-81
2023/03/23 03:28:28;;;;;;;0.15;0.15;;;17.80;74.50;;;;;;5065820;28;45317;-80
2023/03/23 03:31:00;;;;;;;0.25;0.20;;;17.80;74.50;;;;;;5065508;28;45266;-81
2023/03/23 03:33:30;;;;;;;0.20;0.20;;;17.80;74.50;;;;;;5065169;28;46857;-81
2023/03/23 03:36:00;;;;;;;0.30;0.30;;;17.70;74.30;;;;;;5065346;28;45144;-82
2023/03/23 03:38:27;;;;;;;0.40;0.17;;;17.80;74.30;;;;;;5065231;27;45137;-81
2023/03/23 03:40:55;;;;;;;2.03;0.17;;;17.90;74.50;;;;;;5065062;27;45189;-81
2023/03/23 03:43:21;;;;;;;0.45;0.32;;;17.80;74.30;;;;;;5064822;28;47769;-81
2023/03/23 03:45:48;;;;;;;0.20;0.20;;;17.80;74.30;;;;;;5065388;28;45079;-80
2023/03/23 03:48:15;;;;;;;0.38;0.28;;;17.80;74.50;;;;;;5064331;27;45221;-81
2023/03/23 03:50:42;;;;;;;0.45;0.20;;;17.80;74.30;;;;;;5065093;28;45256;-81
2023/03/23 03:53:10;;;;;;;0.57;0.30;;;17.80;74.40;;;;;;5065045;28;46570;-81
2023/03/23 03:55:38;;;;;;;0.32;0.30;;;17.80;74.40;;;;;;5064929;27;45137;-81
2023/03/23 03:58:06;;;;;;;0.20;0.20;;;17.80;74.30;;;;;;5064445;28;45268;-81
2023/03/23 04:00:33;;;;;;;0.28;0.28;;;17.80;74.40;;;;;;5065185;28;45235;-81
2023/03/23 04:03:00;;;;;;;0.10;0.10;;;17.80;74.40;;;;;;5064235;28;47572;-81
2023/03/23 04:05:29;;;;;;;0.30;0.28;;;17.80;74.40;;;;;;5064478;27;45270;-81
2023/03/23 04:08:01;;;;;;;0.30;0.20;;;17.80;74.40;;;;;;5064818;27;45276;-80
2023/03/23 04:10:30;;;;;;;0.10;0.10;;;17.80;74.40;;;;;;5064791;27;45495;-81
2023/03/23 04:12:57;;;;;;;0.47;0.30;;;17.80;74.30;;;;;;5064585;28;48320;-81
2023/03/23 04:15:25;;;;;;;0.32;0.17;;;17.80;74.40;;;;;;5064565;27;45209;-81
2023/03/23 04:17:52;;;;;;;0.20;0.20;;;17.80;74.40;;;;;;5068302;28;45305;-80
2023/03/23 04:20:19;;;;;;;0.45;0.20;;;17.80;74.40;;;;;;5064622;28;45609;-81
2023/03/23 04:22:48;;;;;;;0.30;0.20;;;17.80;74.30;;;;;;5064170;28;48625;-80
2023/03/23 04:25:20;;;;;;;0.15;0.15;;;17.80;74.30;;;;;;5064583;28;45202;-81
2023/03/23 04:27:52;;;;;;;0.40;0.30;;;17.80;74.20;;;;;;5064783;28;45367;-81
2023/03/23 04:30:19;;;;;;;0.35;0.17;;;17.80;74.20;;;;;;5064821;28;45632;-81
2023/03/23 04:32:50;;;;;;;0.22;0.22;;;17.80;74.30;;;;;;5064110;27;46695;-81
2023/03/23 04:35:18;;;;;;;0.60;0.30;;;17.80;74.20;;;;;;5064506;28;45360;-81
2023/03/23 04:37:45;;;;;;;0.60;0.30;;;17.80;74.20;;;;;;5064557;28;45237;-81
2023/03/23 04:40:14;;;;;;;0.38;0.20;;;18.10;74.50;;;;;;5064349;28;45526;-81
2023/03/23 04:42:45;;;;;;;0.30;0.30;;;17.80;74.20;;;;;;5064481;28;46331;-81
2023/03/23 04:45:15;;;;;;;0.13;0.13;;;17.80;74.20;;;;;;5064011;28;46173;-80
2023/03/23 04:47:49;;;;;;;0.35;0.35;;;17.80;74.20;;;;;;5064086;28;45204;-81
2023/03/23 04:50:17;;;;;;;0.30;0.20;;;17.80;74.20;;;;;;5064407;28;45182;-80
2023/03/23 04:52:44;;;;;;;0.80;0.40;;;17.80;74.20;;;;;;5064203;28;47476;-81
2023/03/23 04:55:12;;;;;;;0.30;0.20;;;17.80;74.30;;;;;;5063980;27;45394;-81
2023/03/23 04:57:40;;;;;;;0.40;0.30;;;17.80;74.20;;;;;;5064155;28;45141;-81
2023/03/23 05:00:08;;;;;;;0.00;0.00;;;17.80;74.30;;;;;;5064351;28;45362;-81
2023/03/23 05:02:36;;;;;;;0.10;0.10;;;17.80;74.30;;;;;;5064008;27;46642;-80
2023/03/23 05:05:04;;;;;;;0.75;0.30;;;17.70;74.20;;;;;;5063886;28;45205;-81
2023/03/23 05:07:30;;;;;;;0.95;0.40;;;17.80;74.30;;;;;;5064632;28;45326;-81
2023/03/23 05:09:57;;;;;;;0.20;0.20;;;17.80;74.30;;;;;;5069274;28;45085;-81
2023/03/23 05:12:24;;;;;;;0.10;0.10;;;17.80;74.30;;;;;;5064144;28;46100;-81
2023/03/23 05:14:51;;;;;;;0.28;0.28;;;17.80;74.30;;;;;;5063727;27;45330;-80
2023/03/23 05:17:18;;;;;;;0.25;0.25;;;17.80;74.30;;;;;;5064258;28;45173;-81
2023/03/23 05:19:47;;;;;;;0.28;0.20;;;17.80;74.20;;;;;;5064092;27;45393;-81
2023/03/23 05:22:14;;;;;;;0.20;0.20;;;17.80;74.20;;;;;;5063400;28;47325;-81
2023/03/23 05:24:43;;;;;;;1.77;0.30;;;17.80;74.10;;;;;;5063953;28;45428;-81
2023/03/23 05:27:10;;;;;;;0.47;0.30;;;17.80;74.20;;;;;;5063951;27;45214;-81
2023/03/23 05:29:40;;;;;;;0.30;0.22;;;17.80;74.20;;;;;;5063682;27;45221;-81
2023/03/23 05:32:08;;;;;;;0.35;0.30;;;17.80;74.20;;;;;;5063305;28;48318;-81
2023/03/23 05:34:35;;;;;;;0.20;0.20;;;17.80;74.20;;;;;;5063643;27;45274;-80
2023/03/23 05:37:04;;;;;;;0.80;0.30;;;17.80;74.20;;;;;;5063613;28;45151;-81
2023/03/23 05:39:32;;;;;;;0.82;0.20;;;17.80;74.10;;;;;;5063487;27;45437;-81
2023/03/23 05:41:59;;;;;;;0.20;0.20;;;17.80;74.10;;;;;;5063144;28;45351;-81
2023/03/23 05:44:26;;;;;;;0.20;0.20;;;17.80;74.10;;;;;;5063622;27;45309;-81
2023/03/23 05:46:53;;;;;;;0.30;0.20;;;17.80;74.10;;;;;;5063423;28;45171;-81
2023/03/23 05:49:20;;;;;;;0.20;0.20;;;17.80;74.00;;;;;;5063590;28;45107;-81
2023/03/23 05:51:47;;;;;;;0.22;0.20;;;17.70;74.00;;;;;;5063272;28;47323;-79
2023/03/23 05:54:15;;;;;;;0.15;0.15;;;17.80;74.10;;;;;;5063388;27;45226;-80
2023/03/23 05:56:42;;;;;;;0.20;0.20;;;17.80;74.10;;;;;;5063190;28;45228;-80
2023/03/23 05:59:10;;;;;;;0.28;0.20;;;17.80;74.00;;;;;;5063553;28;45444;-81
2023/03/23 06:01:36;;;;;;;0.20;0.20;;;17.80;74.00;;;;;;5066306;28;47480;-81
2023/03/23 06:04:03;;;;;;;0.28;0.28;;;17.80;74.00;;;;;;5063261;27;45446;-83
2023/03/23 06:06:32;;;;;;;0.68;0.30;;;17.80;74.00;;;;;;5062986;28;45190;-80
2023/03/23 06:09:00;;;;;;;0.10;0.10;;;17.80;74.10;;;;;;5063046;27;45450;-81
2023/03/23 06:11:28;;;;;;;0.22;0.22;;;17.70;74.20;;;;;;5063112;27;45467;-81
2023/03/23 06:13:55;;;;;;;0.50;0.40;;;17.70;74.30;;;;;;5062979;28;45204;-81
2023/03/23 06:16:22;;;;;;;0.30;0.30;;;17.70;74.40;;;;;;5063347;28;45237;-81
2023/03/23 06:18:49;;;;;;;0.57;0.20;;;17.70;74.50;;;;;;5063303;28;45425;-81
2023/03/23 06:21:18;;;;;;;0.20;0.20;;;17.70;74.50;;;;;;5063737;28;47756;-80
2023/03/23 06:23:45;;;;;;;0.65;0.28;;;17.70;74.50;;;;;;5066057;28;45177;-81
2023/03/23 06:26:16;;;;;;;0.30;0.28;;;17.70;74.50;;;;;;5066029;28;45210;-80
2023/03/23 06:28:44;;;;;;;0.43;0.30;;;17.70;74.40;;;;;;5066580;28;45294;-81
2023/03/23 06:31:11;;;;;;;1.98;0.20;;;17.70;74.30;;;;;;5066103;28;46682;-81
2023/03/23 06:33:40;;;;;;;0.35;0.30;;;17.90;75.60;;;;;;5066003;28;46698;-81
2023/03/23 06:36:08;;;;;;;0.35;0.20;;;17.70;74.30;;;;;;5065722;28;45293;-80
2023/03/23 06:38:35;;;;;;;0.38;0.30;;;17.80;74.30;;;;;;5065984;28;45623;-81
2023/03/23 06:41:02;;;;;;;2.35;0.40;;;17.70;74.20;;;;;;5065880;28;47014;-81
2023/03/23 06:43:29;;;;;;;0.13;0.13;;;17.70;74.20;;;;;;5065483;28;45608;-80
2023/03/23 06:45:59;;;;;;;0.22;0.20;;;17.70;74.30;;;;;;5065897;28;45191;-81
2023/03/23 06:48:26;;;;;;;0.22;0.20;;;17.70;74.20;;;;;;5065795;28;45201;-81
2023/03/23 06:50:53;;;;;;;0.20;0.20;;;17.70;74.20;;;;;;5065514;27;45389;-81
2023/03/23 06:53:21;;;;;;;0.25;0.20;;;17.70;74.20;;;;;;5069351;28;45222;-80
2023/03/23 06:55:47;;;;;;;0.20;0.20;;;17.70;74.00;;;;;;5065961;27;45189;-80
2023/03/23 06:58:14;;;;;;;0.40;0.30;;;17.70;74.00;;;;;;5065563;27;45441;-81
2023/03/23 07:00:41;;;;;;;0.28;0.28;;;17.70;74.10;;;;;;5065455;28;47031;-81
2023/03/23 07:03:09;;;;;;;0.70;0.35;;;17.70;74.00;;;;;;5065591;28;45065;-80
2023/03/23 07:05:36;;;;;;;0.30;0.30;;;17.70;74.00;;;;;;5065526;27;45116;-80
2023/03/23 07:08:03;;;;;;;1.38;0.30;;;17.70;74.00;;;;;;5065527;28;45225;-81
2023/03/23 07:10:31;;;;;;;0.20;0.20;;;17.80;74.00;;;;;;5065268;28;46323;-80
2023/03/23 07:12:59;;;;;;;0.88;0.20;;;17.80;74.00;;;;;;5065483;28;45187;-81
2023/03/23 07:15:26;;;;;;;0.10;0.10;;;17.80;74.00;;;;;;5065314;28;45150;-80
2023/03/23 07:17:54;;;;;;;0.68;0.20;;;17.80;73.90;;;;;;5065514;28;45268;-81
2023/03/23 07:20:22;;;;;;;0.17;0.17;;;17.80;74.00;;;;;;5065042;28;48011;-81
2023/03/23 07:22:49;;;;;;;0.52;0.20;;;17.80;73.90;;;;;;5065034;28;45339;-80
2023/03/23 07:25:16;;;;;;;0.77;0.22;;;17.80;73.80;;;;;;5065108;27;45293;-80
2023/03/23 07:27:45;;;;;;;0.10;0.10;;;17.80;73.80;;;;;;5065441;28;45336;-81
2023/03/23 07:30:14;;;;;;;0.20;0.20;;;17.80;73.80;;;;;;5065137;27;45443;-81
2023/03/23 07:32:41;;;;;;;0.20;0.17;;;17.80;73.80;;;;;;5064296;28;45265;-81
2023/03/23 07:35:08;;;;;;;0.63;0.30;;;17.80;73.80;;;;;;5065161;27;45260;-81
2023/03/23 07:37:37;;;;;;;0.70;0.30;;;17.80;73.80;;;;;;5065492;28;45174;-80
2023/03/23 07:40:14;;;;;;;0.20;0.20;;;17.70;74.00;;;;;;5064824;28;47589;-80
2023/03/23 07:42:41;;;;;;;0.13;0.13;;;17.70;74.10;;;;;;5065207;28;45186;-81
2023/03/23 07:45:09;;;;;;;0.55;0.30;;;17.70;74.20;;;;;;5068915;28;45375;-79
2023/03/23 07:47:36;;;;;;;0.55;0.20;;;17.70;74.20;;;;;;5065039;28;45426;-80
2023/03/23 07:50:03;;;;;;;0.20;0.20;;;17.70;74.20;;;;;;5064594;27;46666;-80
2023/03/23 07:52:31;;;;;;;0.20;0.20;;;17.70;75.20;;;;;;5065366;27;45061;-80
2023/03/23 07:55:01;;;;;;;0.30;0.25;;;17.70;74.30;;;;;;5065156;28;45370;-80
2023/03/23 07:57:28;;;;;;;1.35;0.65;;;17.70;74.20;;;;;;5064739;27;45318;-80
2023/03/23 07:59:55;;;;;;;0.50;0.30;;;17.70;74.30;;;;;;5064616;28;46854;-80
2023/03/23 08:02:22;;;;;;;0.10;0.10;;;17.70;74.20;;;;;;5064682;28;45250;-80
2023/03/23 08:04:49;;;;;;;0.70;0.30;;;17.70;74.20;;;;;;5064945;28;45156;-80
2023/03/23 08:07:17;;;;;;;0.28;0.20;;;17.70;74.10;;;;;;5065150;28;45281;-80
2023/03/23 08:09:43;;;;;;;0.10;0.10;;;17.70;74.20;;;;;;5064490;28;46731;-80
2023/03/23 08:12:12;;;;;;;1.83;0.35;;;17.70;74.10;;;;;;5064939;28;45148;-79
2023/03/23 08:14:39;;;;;;;1.05;0.30;;;17.70;74.20;;;;;;5064604;27;45240;-80
2023/03/23 08:17:06;;;;;;;0.20;0.13;;;17.70;74.20;;;;;;5064879;27;45225;-83
2023/03/23 08:19:36;;;;;;;0.52;0.22;;;17.70;74.10;;;;;;5064595;28;46757;-81
2023/03/23 08:22:03;;;;;;;0.17;0.17;;;17.70;74.20;;;;;;5064362;28;45440;-81
2023/03/23 08:24:30;;;;;;;0.80;0.10;;;17.70;74.20;;;;;;5064829;28;45234;-81
2023/03/23 08:26:57;;;;;;;0.60;0.30;;;17.70;74.20;;;;;;5064695;27;45406;-80
2023/03/23 08:29:26;;;;;;;0.10;0.10;;;17.70;74.20;;;;;;5064644;28;47358;-81
2023/03/23 08:31:53;;;;;;;0.65;0.20;;;17.70;74.10;;;;;;5064164;27;45224;-80
2023/03/23 08:34:20;;;;;;;0.40;0.30;;;17.70;74.20;;;;;;5064453;28;45386;-80
2023/03/23 08:36:47;;;;;;;0.10;0.10;;;17.70;74.00;;;;;;5067891;28;45418;-80
2023/03/23 08:39:14;;;;;;;0.65;0.20;;;17.70;74.20;;;;;;5064515;28;46856;-81
2023/03/23 08:41:41;;;;;;;0.32;0.25;;;17.70;74.20;;;;;;5064674;28;45568;-84
2023/03/23 08:44:08;;;;;;;0.82;0.30;;;18.20;74.70;;;;;;5064706;28;45359;-81
2023/03/23 08:46:36;;;;;;;0.30;0.15;;;17.70;74.10;;;;;;5064590;28;45362;-81
2023/03/23 08:49:03;;;;;;;0.52;0.30;;;17.70;75.00;;;;;;5063796;28;46513;-80
2023/03/23 08:51:30;;;;;;;0.73;0.25;;;17.70;74.00;;;;;;5064219;28;45097;-80
2023/03/23 08:53:58;;;;;;;1.58;0.30;;;17.70;74.00;;;;;;5064440;28;45104;-80
2023/03/23 08:56:26;;;;;;;0.20;0.20;;;17.70;73.90;;;;;;5064289;28;45288;-80
2023/03/23 08:58:53;;;;;;;0.47;0.20;;;17.70;73.80;;;;;;5063834;28;46339;-80
2023/03/23 09:01:19;;;;;;;0.40;0.25;;;17.70;73.80;;;;;;5064121;28;46534;-80
2023/03/23 09:03:48;;;;;;;1.27;0.38;;;17.70;73.80;;;;;;5064135;28;45166;-80
2023/03/23 09:06:15;;;;;;;0.20;0.20;;;17.70;73.60;;;;;;5063958;28;45193;-79
2023/03/23 09:08:41;;;;;;;0.98;0.20;;;17.70;73.50;;;;;;5064173;28;47692;-79
2023/03/23 09:11:10;;;;;;;0.57;0.20;;;17.70;73.70;;;;;;5063844;28;45140;-80
2023/03/23 09:13:38;;;;;;;0.55;0.40;;;17.70;73.70;;;;;;5064153;28;45243;-81
2023/03/23 09:16:06;;;;;;;0.47;0.10;;;17.80;73.70;;;;;;5063921;28;45176;-80
2023/03/23 09:18:34;;;;;;;0.68;0.28;;;17.80;73.40;;;;;;5063624;28;47492;-81
2023/03/23 09:21:04;;;;;;;0.70;0.28;;;17.80;73.30;;;;;;5063751;28;45286;-81
2023/03/23 09:23:31;;;;;;;0.30;0.30;;;17.90;73.10;;;;;;5063905;28;45189;-80
2023/03/23 09:25:58;;;;;;;0.30;0.28;;;17.90;72.80;;;;;;5064075;28;45267;-80
2023/03/23 09:28:25;;;;;;;1.05;0.40;;;18.00;72.80;;;;;;5066851;28;48428;-80
2023/03/23 09:30:52;;;;;;;0.65;0.32;;;18.00;72.80;;;;;;5063489;28;46281;-80
2023/03/23 09:33:19;;;;;;;0.35;0.20;;;17.90;72.80;;;;;;5063492;28;45230;-80
2023/03/23 09:35:46;;;;;;;0.40;0.20;;;17.90;72.80;;;;;;5063797;27;45262;-80
2023/03/23 09:38:14;;;;;;;0.20;0.20;;;18.00;73.00;;;;;;5063313;28;48503;-83
2023/03/23 09:40:48;;;;;;;0.47;0.35;;;18.00;73.00;;;;;;5063552;27;45269;-82
2023/03/23 09:43:39;;;;;;;0.30;0.10;;;18.00;72.60;;;;;;5063630;27;45117;-81
2023/03/23 09:46:24;;;;;;;0.77;0.30;;;18.00;71.50;;;;;;5063817;28;45361;-81
2023/03/23 09:48:53;;;;;;;0.57;0.30;;;18.00;71.20;;;;;;5063106;28;45469;-81
2023/03/23 09:51:33;;;;;;;1.27;0.20;;;18.00;71.20;;;;;;5063547;28;45924;-80
2023/03/23 09:54:07;;;;;;;0.43;0.30;;;18.00;71.40;;;;;;5060720;28;45210;-81
2023/03/23 09:56:35;;;;;;;0.52;0.40;;;17.90;72.40;;;;;;5063012;27;45264;-81
2023/03/23 09:59:07;;;;;;;1.90;0.73;;;18.00;71.60;;;;;;5063003;28;46526;-81
2023/03/23 10:01:39;;;;;;;0.75;0.30;;;18.30;72.00;;;;;;5063323;28;45247;-81
2023/03/23 10:04:13;;;;;;;0.63;0.32;;;18.00;71.70;;;;;;5063586;27;45075;-81
2023/03/23 10:06:40;;;;;;;0.32;0.25;;;18.00;71.70;;;;;;5063812;27;45235;-81
2023/03/23 10:09:16;;;;;;;0.52;0.30;;;18.00;71.90;;;;;;5063049;28;47023;-82
2023/03/23 10:11:55;;;;;;;0.82;0.30;;;18.10;72.10;;;;;;5063235;28;45062;-81
2023/03/23 10:14:37;;;;;;;2.33;0.30;;;18.00;72.20;;;;;;5063402;27;45417;-82
2023/03/23 10:17:14;;;;;;;1.33;0.28;;;18.10;72.30;;;;;;5063250;27;45251;-81
2023/03/23 10:19:48;;;;;;;0.40;0.30;;;18.10;72.40;;;;;;5065787;27;46655;-81
2023/03/23 10:25:43;;;;;;;0.70;0.30;;;18.10;72.60;;;;;;5060120;28;45263;-81
2023/03/23 10:28:13;;;;;;;0.52;0.20;;;18.00;72.70;;;;;;5063087;27;45108;-81
2023/03/23 10:30:42;;;;;;;0.65;0.30;;;18.00;72.90;;;;;;5062486;28;45449;-81
2023/03/23 10:33:16;;;;;;;0.35;0.28;;;18.00;73.00;;;;;;5062439;27;45089;-81
2023/03/23 10:35:47;;;;;;;2.47;0.22;;;18.00;73.10;;;;;;5062643;27;45245;-81
2023/03/23 10:38:18;;;;;;;0.30;0.17;;;18.00;73.10;;;;;;5062632;27;45411;-80
2023/03/23 10:40:52;;;;;;;0.20;0.20;;;18.00;73.30;;;;;;5062620;27;46337;-81
2023/03/23 10:43:20;;;;;;;0.38;0.22;;;18.00;73.30;;;;;;5062277;27;45221;-81
2023/03/23 10:45:53;;;;;;;0.10;0.10;;;18.00;73.40;;;;;;5064112;28;45119;-81
2023/03/23 10:48:32;;;;;;;0.20;0.20;;;18.00;73.50;;;;;;5063639;28;45069;-83
2023/03/23 10:51:01;;;;;;;0.50;0.20;;;18.00;73.60;;;;;;5062937;27;46740;-83
2023/03/23 10:53:33;;;;;;;0.63;0.20;;;17.90;73.80;;;;;;5037827;28;46292;-82
2023/03/23 10:56:02;;;;;;;0.55;0.20;;;17.90;73.90;;;;;;5042571;28;45254;-82
2023/03/23 10:58:31;;;;;;;0.60;0.30;;;18.00;73.80;;;;;;5042590;28;45199;-82
2023/03/23 11:01:00;;;;;;;0.65;0.30;;;18.00;74.10;;;;;;5042212;28;47138;-83
2023/03/23 11:03:41;;;;;;;0.13;0.10;;;17.90;74.20;;;;;;5042083;28;45353;-83
2023/03/23 11:06:10;;;;;;;0.82;0.10;;;17.90;74.20;;;;;;5042265;28;45123;-81
2023/03/23 11:08:49;;;;;;;0.85;0.30;;;17.90;74.40;;;;;;5043852;28;45173;-84
2023/03/23 11:11:20;;;;;;;0.50;0.20;;;17.90;74.50;;;;;;5045435;28;47948;-82
2023/03/23 11:13:51;;;;;;;0.22;0.13;;;17.90;74.60;;;;;;5045357;28;45312;-82
2023/03/23 11:16:25;;;;;;;0.50;0.30;;;18.30;74.90;;;;;;5045743;28;45083;-82
2023/03/23 11:18:53;;;;;;;0.88;0.30;;;17.90;75.60;;;;;;5045388;28;45057;-83
2023/03/23 11:21:23;;;;;;;2.22;0.30;;;17.90;74.70;;;;;;5045581;28;46829;-86
2023/03/23 11:23:52;;;;;;;0.15;0.15;;;18.00;74.90;;;;;;5045292;28;45417;-82
2023/03/23 11:26:23;;;;;;;1.08;0.30;;;17.90;75.00;;;;;;5045055;28;45153;-82
2023/03/23 11:28:55;;;;;;;0.22;0.10;;;17.90;75.20;;;;;;5045460;28;45594;-82
2023/03/23 11:31:24;;;;;;;0.43;0.25;;;17.90;75.30;;;;;;5045195;28;48226;-81
2023/03/23 11:33:56;;;;;;;1.77;0.30;;;17.90;75.10;;;;;;5045145;28;45365;-81
2023/03/23 11:36:32;;;;;;;0.30;0.20;;;17.90;75.30;;;;;;5045254;28;45298;-82
2023/03/23 11:38:59;;;;;;;0.10;0.10;;;17.90;75.40;;;;;;5048766;28;45190;-82
2023/03/23 11:41:34;;;;;;;0.22;0.20;;;17.90;75.40;;;;;;5045012;28;46341;-81
2023/03/23 11:44:11;;;;;;;0.50;0.17;;;17.90;75.40;;;;;;5044613;28;45070;-82
2023/03/23 11:46:46;;;;;;;0.20;0.15;;;17.90;75.60;;;;;;5045375;28;45120;-82
2023/03/23 11:49:23;;;;;;;0.85;0.28;;;17.90;75.40;;;;;;5045019;28;45123;-82
2023/03/23 11:51:54;;;;;;;1.05;0.20;;;17.90;75.50;;;;;;5044785;28;46477;-82
2023/03/23 11:54:29;;;;;;;0.80;0.20;;;17.90;75.60;;;;;;5041695;28;45200;-82
2023/03/23 11:56:58;;;;;;;0.43;0.20;;;17.90;75.40;;;;;;5045148;28;45225;-82
2023/03/23 11:59:30;;;;;;;0.20;0.20;;;18.00;75.60;;;;;;5045046;28;45143;-81
2023/03/23 12:02:11;;;;;;;1.33;0.38;;;18.00;75.70;;;;;;5044929;28;45445;-80
2023/03/23 12:05:05;;;;;;;0.75;0.20;;;17.90;76.00;;;;;;5044399;28;45270;-82
2023/03/23 12:07:47;;;;;;;0.40;0.30;;;18.00;75.90;;;;;;5044921;28;45268;-82
2023/03/23 12:10:26;;;;;;;0.15;0.10;;;18.00;76.50;;;;;;5045006;28;45346;-81
2023/03/23 12:13:06;;;;;;;0.70;0.20;;;18.00;76.10;;;;;;5044302;28;46892;-81
2023/03/23 12:15:41;;;;;;;0.20;0.10;;;18.00;76.10;;;;;;5044544;28;45231;-82
2023/03/23 12:18:18;;;;;;;0.43;0.13;;;18.00;76.10;;;;;;5044728;28;45098;-81
2023/03/23 12:20:58;;;;;;;0.20;0.20;;;18.00;76.10;;;;;;5044407;28;45131;-82
2023/03/23 12:23:27;;;;;;;0.30;0.20;;;18.00;76.30;;;;;;5044193;28;45395;-82
2023/03/23 12:26:10;;;;;;;1.30;0.17;;;18.00;76.10;;;;;;5044377;28;45246;-81
2023/03/23 12:28:51;;;;;;;1.08;0.20;;;18.00;76.40;;;;;;5044485;28;45072;-81
2023/03/23 12:31:26;;;;;;;0.70;0.20;;;17.90;76.30;;;;;;5045273;28;45319;-82
2023/03/23 12:34:02;;;;;;;0.20;0.20;;;17.90;75.90;;;;;;5044097;28;46552;-81
2023/03/23 12:36:42;;;;;;;0.88;0.20;;;17.90;76.10;;;;;;5044138;28;45321;-82
2023/03/23 12:39:49;;;;;;;0.75;0.17;;;17.90;76.20;;;;;;5044511;28;45204;-81
2023/03/23 12:42:23;;;;;;;0.10;0.10;;;17.90;76.40;;;;;;5044527;28;45269;-81
2023/03/23 12:44:55;;;;;;;0.28;0.25;;;18.20;76.70;;;;;;5043857;28;47011;-81
2023/03/23 12:47:36;;;;;;;0.80;0.32;;;18.10;76.60;;;;;;5043841;28;45342;-81
2023/03/23 12:50:11;;;;;;;0.73;0.20;;;17.90;76.40;;;;;;5044369;28;45149;-82
2023/03/23 12:52:45;;;;;;;0.30;0.30;;;18.00;76.50;;;;;;5044373;28;45563;-81
2023/03/23 12:55:20;;;;;;;0.38;0.20;;;18.00;76.50;;;;;;5043971;28;45472;-81
2023/03/23 12:57:55;;;;;;;0.25;0.20;;;18.00;76.50;;;;;;5043723;28;45212;-81
2023/03/23 13:00:26;;;;;;;0.10;0.10;;;18.00;76.50;;;;;;5044384;28;45348;-81
2023/03/23 13:02:58;;;;;;;0.38;0.20;;;18.00;76.50;;;;;;5044517;28;45039;-81
2023/03/23 13:05:36;;;;;;;0.43;0.40;;;18.00;76.50;;;;;;5043926;28;48604;-82
2023/03/23 13:08:10;;;;;;;0.30;0.20;;;18.00;76.50;;;;;;5044061;28;45272;-80